createdAt,value
2022-09-22T00:01:13.377Z,99358.77
2022-09-22T00:04:29.931Z,99354.28
2022-09-22T00:07:45.879Z,99358.76
2022-09-22T00:11:17.970Z,99362.72
2022-09-22T00:14:35.517Z,99354.90
2022-09-22T00:17:52.384Z,99351.73
2022-09-22T00:21:13.434Z,99358.99
2022-09-22T00:24:32.032Z,99352.72
2022-09-22T00:27:49.928Z,99356.05
2022-09-22T00:31:08.051Z,99355.20
2022-09-22T00:34:27.259Z,99349.09
2022-09-22T00:37:43.442Z,99361.01
2022-09-22T00:41:01.629Z,99361.36
2022-09-22T00:44:44.634Z,99360.19
2022-09-22T00:48:00.774Z,99359.51
2022-09-22T00:51:21.180Z,99355.02
2022-09-22T00:54:37.520Z,99349.72
2022-09-22T00:57:55.596Z,99350.54
2022-09-22T01:01:12.526Z,99363.30
2022-09-22T01:04:28.813Z,99361.69
2022-09-22T01:07:45.505Z,99368.48
2022-09-22T01:11:02.644Z,99360.38
2022-09-22T01:14:24.643Z,99366.35
2022-09-22T01:17:47.378Z,99360.73
2022-09-22T01:21:29.567Z,99367.22
2022-09-22T01:25:07.011Z,99366.23
2022-09-22T01:28:59.866Z,99367.86
2022-09-22T01:32:21.989Z,99369.36
2022-09-22T01:35:45.397Z,99363.42
2022-09-22T01:39:11.045Z,99361.07
2022-09-22T01:42:32.541Z,99357.28
2022-09-22T01:45:51.957Z,99358.94
2022-09-22T01:49:12.105Z,99359.11
2022-09-22T01:52:32.874Z,99350.02
2022-09-22T01:55:51.998Z,99355.78
2022-09-22T01:59:12.006Z,99352.15
2022-09-22T02:02:33.195Z,99348.00
2022-09-22T02:05:54.768Z,99343.70
2022-09-22T02:09:15.071Z,99339.72
2022-09-22T02:12:31.262Z,99342.83
2022-09-22T02:16:05.566Z,99345.64
2022-09-22T02:19:25.971Z,99344.61
2022-09-22T02:22:42.376Z,99346.91
2022-09-22T02:25:59.559Z,99346.44
2022-09-22T02:29:18.584Z,99337.64
2022-09-22T02:32:37.093Z,99339.14
2022-09-22T02:35:58.508Z,99332.19
2022-09-22T02:39:20.174Z,99341.10
2022-09-22T02:42:40.855Z,99346.55
2022-09-22T02:46:01.108Z,99347.38
2022-09-22T02:49:21.783Z,99350.02
2022-09-22T02:52:37.726Z,99346.39
2022-09-22T02:55:54.803Z,99341.27
2022-09-22T02:59:11.507Z,99340.75
2022-09-22T03:02:27.758Z,99348.84
2022-09-22T03:05:44.340Z,99342.35
2022-09-22T03:09:00.573Z,99343.66
2022-09-22T03:12:17.032Z,99347.13
2022-09-22T03:15:33.431Z,99342.98
2022-09-22T03:18:49.467Z,99337.69
2022-09-22T03:22:05.423Z,99344.48
2022-09-22T03:25:21.768Z,99351.44
2022-09-22T03:28:37.714Z,99350.13
2022-09-22T03:31:53.930Z,99347.48
2022-09-22T03:35:10.542Z,99341.08
2022-09-22T03:38:26.437Z,99346.86
2022-09-22T03:41:42.744Z,99355.99
2022-09-22T03:44:59.435Z,99353.70
2022-09-22T03:48:15.873Z,99352.66
2022-09-22T03:51:35.158Z,99356.67
2022-09-22T03:54:48.864Z,99347.42
2022-09-22T03:58:04.637Z,99354.22
2022-09-22T04:01:21.326Z,99354.38
2022-09-22T04:04:38.451Z,99352.55
2022-09-22T04:07:54.602Z,99357.38
2022-09-22T04:11:11.980Z,99354.73
2022-09-22T04:14:28.311Z,99352.60
2022-09-22T04:17:46.526Z,99355.77
2022-09-22T04:21:05.867Z,99354.10
2022-09-22T04:24:20.971Z,99353.12
2022-09-22T04:27:40.539Z,99355.08
2022-09-22T04:31:02.614Z,99348.13
2022-09-22T04:34:18.967Z,99354.73
2022-09-22T04:37:36.283Z,99360.70
2022-09-22T04:40:52.440Z,99353.42
2022-09-22T04:44:23.809Z,99355.08
2022-09-22T04:47:41.002Z,99364.69
2022-09-22T04:50:56.981Z,99369.81
2022-09-22T04:54:16.606Z,99369.81
2022-09-22T04:57:32.584Z,99368.83
2022-09-22T05:00:48.799Z,99364.35
2022-09-22T05:04:04.766Z,99362.55
2022-09-22T05:07:20.861Z,99364.73
2022-09-22T05:10:38.097Z,99361.24
2022-09-22T05:13:55.884Z,99364.56
2022-09-22T05:17:12.109Z,99369.02
2022-09-22T05:20:29.118Z,99367.05
2022-09-22T05:23:45.636Z,99369.53
2022-09-22T05:27:01.741Z,99372.67
2022-09-22T05:30:20.126Z,99384.77
2022-09-22T05:33:38.075Z,99378.63
2022-09-22T05:36:57.250Z,99372.98
2022-09-22T05:40:15.933Z,99386.84
2022-09-22T05:43:32.410Z,99391.16
2022-09-22T05:46:48.564Z,99388.50
2022-09-22T05:50:04.764Z,99381.25
2022-09-22T05:53:23.344Z,99393.34
2022-09-22T05:56:40.775Z,99392.32
2022-09-22T05:59:56.797Z,99390.52
2022-09-22T06:03:14.109Z,99398.63
2022-09-22T06:06:30.320Z,99407.57
2022-09-22T06:09:46.486Z,99404.79
2022-09-22T06:13:08.852Z,99408.77
2022-09-22T06:16:25.547Z,99405.30
2022-09-22T06:19:41.675Z,99404.45
2022-09-22T06:22:57.819Z,99411.09
2022-09-22T06:26:14.116Z,99406.01
2022-09-22T06:29:30.898Z,99409.30
2022-09-22T06:32:49.269Z,99411.95
2022-09-22T06:36:06.860Z,99412.63
2022-09-22T06:39:23.187Z,99415.63
2022-09-22T06:42:39.287Z,99419.94
2022-09-22T06:45:56.515Z,99417.47
2022-09-22T06:49:14.689Z,99423.80
2022-09-22T06:52:30.902Z,99424.95
2022-09-22T06:55:52.497Z,99426.43
2022-09-22T06:59:11.054Z,99426.73
2022-09-22T07:02:28.550Z,99432.89
2022-09-22T07:05:46.598Z,99431.27
2022-09-22T07:09:02.840Z,99430.45
2022-09-22T07:12:20.947Z,99432.38
2022-09-22T07:15:46.067Z,99436.39
2022-09-22T07:19:05.717Z,99433.57
2022-09-22T07:22:22.613Z,99436.05
2022-09-22T07:25:41.176Z,99437.38
2022-09-22T07:28:59.924Z,99433.09
2022-09-22T07:32:18.726Z,99432.08
2022-09-22T07:35:38.764Z,99423.05
2022-09-22T07:38:58.205Z,99427.09
2022-09-22T07:42:14.922Z,99422.48
2022-09-22T07:45:30.975Z,99425.64
2022-09-22T07:48:49.656Z,99433.58
2022-09-22T07:52:06.140Z,99426.30
2022-09-22T07:55:23.049Z,99426.13
2022-09-22T07:58:40.723Z,99432.73
2022-09-22T08:01:58.914Z,99442.68
2022-09-22T08:05:17.351Z,99443.03
2022-09-22T08:08:35.349Z,99443.70
2022-09-22T08:11:54.844Z,99441.69
2022-09-22T08:15:11.841Z,99446.16
2022-09-22T08:18:28.210Z,99453.48
2022-09-22T08:21:49.664Z,99452.48
2022-09-22T08:25:06.730Z,99448.81
2022-09-22T08:28:22.721Z,99451.63
2022-09-22T08:31:41.952Z,99445.83
2022-09-22T08:34:58.870Z,99451.95
2022-09-22T08:38:15.197Z,99457.05
2022-09-22T08:41:38.997Z,99449.42
2022-09-22T08:45:04.935Z,99451.23
2022-09-22T08:48:40.450Z,99453.20
2022-09-22T08:52:02.102Z,99448.86
2022-09-22T08:55:23.814Z,99447.63
2022-09-22T08:58:57.095Z,99449.75
2022-09-22T09:02:55.859Z,99446.03
2022-09-22T09:06:18.962Z,99435.03
2022-09-22T09:09:51.157Z,99429.56
2022-09-22T09:13:23.066Z,99424.30
2022-09-22T09:16:52.450Z,99426.55
2022-09-22T09:20:19.760Z,99425.58
2022-09-22T09:27:05.307Z,99425.34
2022-09-22T09:30:27.365Z,99425.22
2022-09-22T09:33:52.866Z,99429.30
2022-09-22T09:37:18.747Z,99434.28
2022-09-22T09:45:29.759Z,99426.53
2022-09-22T09:49:15.671Z,99432.52
2022-09-22T09:52:34.287Z,99432.66
2022-09-22T09:55:51.422Z,99425.72
2022-09-22T09:59:24.672Z,99428.91
2022-09-22T10:02:45.119Z,99423.95
2022-09-22T10:06:09.859Z,99433.95
2022-09-22T10:09:36.374Z,99423.05
2022-09-22T10:12:52.504Z,99429.17
2022-09-22T10:16:36.965Z,99435.95
2022-09-22T10:19:53.107Z,99441.94
2022-09-22T10:23:27.935Z,99442.98
2022-09-22T10:26:44.108Z,99432.38
2022-09-22T10:30:28.400Z,99430.72
2022-09-22T10:33:46.219Z,99429.33
2022-09-22T10:37:02.901Z,99424.53
2022-09-22T10:40:24.421Z,99417.75
2022-09-22T10:43:55.830Z,99417.23
2022-09-22T10:47:33.155Z,99410.81
2022-09-22T10:51:01.410Z,99404.70
2022-09-22T10:54:36.641Z,99405.45
2022-09-22T10:58:13.845Z,99408.42
2022-09-22T11:01:48.381Z,99400.11
2022-09-22T11:05:19.550Z,99402.22
2022-09-22T11:08:52.363Z,99392.76
2022-09-22T11:12:24.343Z,99394.52
2022-09-22T11:15:55.141Z,99414.37
2022-09-22T11:19:49.567Z,99412.80
2022-09-22T11:24:03.054Z,99414.13
2022-09-22T11:27:25.075Z,99412.61
2022-09-22T11:30:47.998Z,99409.37
2022-09-22T11:34:46.366Z,99393.88
2022-09-22T11:38:16.667Z,99398.77
2022-09-22T11:41:44.484Z,99398.83
2022-09-22T11:45:10.903Z,99391.52
2022-09-22T11:48:40.745Z,99391.41
2022-09-22T11:52:17.298Z,99391.50
2022-09-22T11:55:45.134Z,99383.31
2022-09-22T11:59:09.532Z,99380.06
2022-09-22T12:02:37.946Z,99387.44
2022-09-22T12:05:59.184Z,99382.27
2022-09-22T12:09:40.865Z,99378.27
2022-09-22T12:13:00.448Z,99375.61
2022-09-22T12:16:23.265Z,99385.41
2022-09-22T12:19:49.358Z,99378.33
2022-09-22T12:23:36.775Z,99385.83
2022-09-22T12:26:56.351Z,99377.20
2022-09-22T12:30:27.184Z,99375.56
2022-09-22T12:33:57.391Z,99368.59
2022-09-22T12:37:36.550Z,99364.84
2022-09-22T12:40:58.514Z,99365.44
2022-09-22T12:44:30.340Z,99358.75
2022-09-22T12:48:03.183Z,99363.69
2022-09-22T12:51:39.859Z,99364.59
2022-09-22T12:54:59.135Z,99355.14
2022-09-22T12:58:48.588Z,99361.55
2022-09-22T13:02:43.037Z,99358.77
2022-09-22T13:06:05.100Z,99358.13
2022-09-22T13:09:31.738Z,99350.59
2022-09-22T13:12:55.858Z,99351.25
2022-09-22T13:16:33.286Z,99358.89
2022-09-22T13:20:04.522Z,99354.86
2022-09-22T13:23:23.084Z,99349.35
2022-09-22T13:26:44.737Z,99347.98
2022-09-22T13:30:12.222Z,99347.57
2022-09-22T13:33:34.501Z,99346.28
2022-09-22T13:36:53.885Z,99346.56
2022-09-22T13:40:12.142Z,99339.51
2022-09-22T13:43:42.807Z,99333.91
2022-09-22T13:47:01.431Z,99339.42
2022-09-22T13:50:33.663Z,99349.41
2022-09-22T13:53:56.315Z,99350.88
2022-09-22T13:57:25.075Z,99346.28
2022-09-22T14:01:12.203Z,99338.40
2022-09-22T14:04:28.644Z,99336.46
2022-09-22T14:08:01.267Z,99341.66
2022-09-22T14:11:08.368Z,99330.92
2022-09-22T14:14:36.653Z,99334.83
2022-09-22T14:18:04.575Z,99323.52
2022-09-22T14:21:23.132Z,99326.88
2022-09-22T14:24:43.108Z,99322.25
2022-09-22T14:28:07.366Z,99319.64
2022-09-22T14:31:29.086Z,99331.27
2022-09-22T14:34:50.586Z,99332.92
2022-09-22T14:38:19.971Z,99328.56
2022-09-22T14:41:34.481Z,99337.16
2022-09-22T14:44:56.721Z,99333.39
2022-09-22T14:48:39.175Z,99336.35
2022-09-22T14:51:57.519Z,99334.88
2022-09-22T14:55:25.788Z,99328.80
2022-09-22T14:58:46.100Z,99323.37
2022-09-22T15:02:26.594Z,99318.80
2022-09-22T15:05:45.141Z,99322.52
2022-09-22T15:09:04.194Z,99325.63
2022-09-22T15:12:49.352Z,99326.02
2022-09-22T15:16:07.093Z,99326.23
2022-09-22T15:19:23.753Z,99328.73
2022-09-22T15:22:40.782Z,99331.72
2022-09-22T15:25:58.505Z,99331.23
2022-09-22T15:29:18.077Z,99327.59
2022-09-22T15:32:34.617Z,99330.30
2022-09-22T15:36:00.493Z,99337.30
2022-09-22T15:39:22.160Z,99330.50
2022-09-22T15:42:48.231Z,99333.97
2022-09-22T15:45:59.418Z,99337.11
2022-09-22T15:49:23.661Z,99325.83
2022-09-22T15:52:40.080Z,99332.48
2022-09-22T15:55:58.802Z,99333.66
2022-09-22T15:59:20.317Z,99333.98
2022-09-22T16:02:44.743Z,99334.66
2022-09-22T16:06:06.690Z,99337.31
2022-09-22T16:09:25.353Z,99342.44
2022-09-22T16:12:42.525Z,99336.50
2022-09-22T16:16:03.740Z,99340.33
2022-09-22T16:19:29.080Z,99330.70
2022-09-22T16:22:51.712Z,99316.44
2022-09-22T16:26:08.613Z,99321.56
2022-09-22T16:29:30.156Z,99321.20
2022-09-22T16:32:46.890Z,99327.05
2022-09-22T16:36:11.110Z,99327.69
2022-09-22T16:39:43.440Z,99329.02
2022-09-22T16:43:01.414Z,99330.50
2022-09-22T16:46:34.866Z,99327.18
2022-09-22T16:49:59.640Z,99333.98
2022-09-22T16:53:18.776Z,99323.73
2022-09-22T16:56:50.749Z,99322.73
2022-09-22T17:00:24.417Z,99324.92
2022-09-22T17:03:42.366Z,99329.05
2022-09-22T17:06:59.456Z,99330.76
2022-09-22T17:10:21.423Z,99333.73
2022-09-22T17:13:58.905Z,99336.56
2022-09-22T17:17:23.961Z,99344.35
2022-09-22T17:20:50.969Z,99344.03
2022-09-22T17:24:14.493Z,99349.34
2022-09-22T17:27:34.510Z,99349.84
2022-09-22T17:31:12.812Z,99349.84
2022-09-22T17:34:51.732Z,99347.69
2022-09-22T17:38:29.516Z,99350.52
2022-09-22T17:41:56.320Z,99349.38
2022-09-22T17:45:21.004Z,99347.72
2022-09-22T17:48:51.869Z,99354.53
2022-09-22T17:52:38.775Z,99350.40
2022-09-22T17:56:10.443Z,99354.19
2022-09-22T17:59:35.412Z,99366.97
2022-09-22T18:03:09.304Z,99367.44
2022-09-22T18:06:49.541Z,99371.25
2022-09-22T18:10:15.912Z,99373.05
2022-09-22T18:13:39.533Z,99377.20
2022-09-22T18:17:01.980Z,99375.75
2022-09-22T18:20:25.231Z,99377.05
2022-09-22T18:23:49.195Z,99370.09
2022-09-22T18:27:23.197Z,99373.05
2022-09-22T18:31:04.452Z,99376.55
2022-09-22T18:34:30.618Z,99378.53
2022-09-22T18:38:04.324Z,99376.05
2022-09-22T18:41:24.524Z,99377.03
2022-09-22T18:44:55.961Z,99387.16
2022-09-22T18:48:36.949Z,99385.32
2022-09-22T18:52:07.018Z,99390.31
2022-09-22T18:55:23.725Z,99393.95
2022-09-22T18:58:41.705Z,99381.01
2022-09-22T19:02:01.507Z,99385.98
2022-09-22T19:05:24.603Z,99377.71
2022-09-22T19:08:42.104Z,99379.38
2022-09-22T19:12:02.552Z,99379.69
2022-09-22T19:15:27.510Z,99367.42
2022-09-22T19:18:52.267Z,99368.91
2022-09-22T19:22:13.980Z,99369.25
2022-09-22T19:25:38.475Z,99376.53
2022-09-22T19:29:01.843Z,99374.23
2022-09-22T19:32:31.174Z,99379.86
2022-09-22T19:36:00.346Z,99383.02
2022-09-22T19:39:25.992Z,99381.86
2022-09-22T19:42:49.456Z,99381.86
2022-09-22T19:46:06.483Z,99381.17
2022-09-22T19:49:26.358Z,99377.54
2022-09-22T19:52:49.062Z,99380.19
2022-09-22T19:56:14.790Z,99380.02
2022-09-22T19:59:38.580Z,99387.33
2022-09-22T20:03:07.206Z,99388.96
2022-09-22T20:06:29.405Z,99378.53
2022-09-22T20:09:51.558Z,99381.33
2022-09-22T20:13:14.725Z,99375.53
2022-09-22T20:16:42.519Z,99378.18
2022-09-22T20:19:59.870Z,99374.72
2022-09-22T20:23:27.164Z,99369.23
2022-09-22T20:26:43.592Z,99368.25
2022-09-22T20:30:00.575Z,99369.07
2022-09-22T20:33:23.347Z,99373.55
2022-09-22T20:36:40.225Z,99365.29
2022-09-22T20:39:59.098Z,99365.11
2022-09-22T20:43:17.953Z,99369.23
2022-09-22T20:46:34.819Z,99363.94
2022-09-22T20:49:52.144Z,99369.07
2022-09-22T20:53:09.748Z,99364.92
2022-09-22T20:56:26.137Z,99368.91
2022-09-22T20:59:44.388Z,99364.94
2022-09-22T21:03:02.810Z,99360.45
2022-09-22T21:06:20.709Z,99361.30
2022-09-22T21:09:51.256Z,99368.41
2022-09-22T21:13:07.782Z,99368.08
2022-09-22T21:16:24.362Z,99360.30
2022-09-22T21:19:41.224Z,99361.77
2022-09-22T21:22:59.345Z,99359.79
2022-09-22T21:26:17.604Z,99367.40
2022-09-22T21:29:34.081Z,99353.84
2022-09-22T21:32:50.585Z,99360.63
2022-09-22T21:36:17.911Z,99358.29
2022-09-22T21:39:33.921Z,99353.49
2022-09-22T21:42:51.727Z,99354.98
2022-09-22T21:46:11.920Z,99358.15
2022-09-22T21:49:29.550Z,99354.66
2022-09-22T21:52:47.149Z,99352.00
2022-09-22T21:56:11.944Z,99351.67
2022-09-22T21:59:28.526Z,99350.00
2022-09-22T22:02:54.676Z,99353.64
2022-09-22T22:06:14.563Z,99353.17
2022-09-22T22:09:31.516Z,99345.68
2022-09-22T22:12:50.333Z,99341.88
2022-09-22T22:16:10.024Z,99346.69
2022-09-22T22:19:29.181Z,99352.81
2022-09-22T22:22:45.640Z,99341.37
2022-09-22T22:26:08.531Z,99343.68
2022-09-22T22:29:26.098Z,99332.58
2022-09-22T22:32:43.176Z,99337.73
2022-09-22T22:36:04.182Z,99330.44
2022-09-22T22:39:21.117Z,99337.91
2022-09-22T22:42:37.200Z,99331.11
2022-09-22T22:45:54.345Z,99335.73
2022-09-22T22:49:12.473Z,99330.44
2022-09-22T22:52:28.611Z,99330.27
2022-09-22T22:55:46.274Z,99325.48
2022-09-22T22:59:03.207Z,99315.53
2022-09-22T23:02:19.327Z,99316.04
2022-09-22T23:05:39.536Z,99319.50
2022-09-22T23:08:54.534Z,99308.59
2022-09-22T23:12:11.634Z,99318.86
2022-09-22T23:15:27.970Z,99306.94
2022-09-22T23:18:46.386Z,99308.09
2022-09-22T23:22:03.690Z,99315.05
2022-09-22T23:25:20.887Z,99310.57
2022-09-22T23:28:38.784Z,99314.71
2022-09-22T23:31:54.844Z,99312.73
2022-09-22T23:35:11.828Z,99305.10
2022-09-22T23:38:28.169Z,99311.73
2022-09-22T23:41:44.927Z,99309.25
2022-09-22T23:45:01.033Z,99302.13
2022-09-22T23:48:17.801Z,99308.09
2022-09-22T23:51:33.714Z,99299.98
2022-09-22T23:54:49.678Z,99308.91
2022-09-22T23:58:06.094Z,99297.64
